sensor_id;sensor_type;location;lat;lon;timestamp;temperature;humidity
44117;DHT22;29781;49.480;8.512;2023-01-10T00:00:50;7.50;99.90
44117;DHT22;29781;49.480;8.512;2023-01-10T00:03:15;7.50;99.90
44117;DHT22;29781;49.480;8.512;2023-01-10T00:05:41;7.50;99.90
44117;DHT22;29781;49.480;8.512;2023-01-10T00:08:07;7.50;99.90
44117;DHT22;29781;49.480;8.512;2023-01-10T00:10:33;7.50;99.90
44117;DHT22;29781;49.480;8.512;2023-01-10T00:12:58;7.50;99.90
44117;DHT22;29781;49.480;8.512;2023-01-10T00:15:42;7.50;99.90
44117;DHT22;29781;49.480;8.512;2023-01-10T00:18:08;7.50;99.90
44117;DHT22;29781;49.480;8.512;2023-01-10T00:20:33;7.60;99.90
44117;DHT22;29781;49.480;8.512;2023-01-10T00:22:59;7.60;99.90
44117;DHT22;29781;49.480;8.512;2023-01-10T00:25:25;7.60;99.90
44117;DHT22;29781;49.480;8.512;2023-01-10T00:27:53;7.50;99.90
44117;DHT22;29781;49.480;8.512;2023-01-10T00:30:22;7.60;99.90
44117;DHT22;29781;49.480;8.512;2023-01-10T00:32:47;7.60;99.90
44117;DHT22;29781;49.480;8.512;2023-01-10T00:35:13;7.60;99.90
44117;DHT22;29781;49.480;8.512;2023-01-10T00:37:38;7.50;99.90
44117;DHT22;29781;49.480;8.512;2023-01-10T00:40:05;7.60;99.90
44117;DHT22;29781;49.480;8.512;2023-01-10T00:42:34;7.60;99.90
44117;DHT22;29781;49.480;8.512;2023-01-10T00:45:18;7.50;99.90
44117;DHT22;29781;49.480;8.512;2023-01-10T00:47:44;7.40;99.90
44117;DHT22;29781;49.480;8.512;2023-01-10T00:50:10;7.40;99.90
44117;DHT22;29781;49.480;8.512;2023-01-10T00:52:36;7.50;99.90
44117;DHT22;29781;49.480;8.512;2023-01-10T00:55:01;7.40;99.90
44117;DHT22;29781;49.480;8.512;2023-01-10T00:57:27;7.30;99.90
44117;DHT22;29781;49.480;8.512;2023-01-10T00:59:52;7.30;99.90
44117;DHT22;29781;49.480;8.512;2023-01-10T01:02:18;7.20;99.90
44117;DHT22;29781;49.480;8.512;2023-01-10T01:04:43;7.20;99.90
44117;DHT22;29781;49.480;8.512;2023-01-10T01:07:09;7.20;99.90
44117;DHT22;29781;49.480;8.512;2023-01-10T01:09:34;7.30;99.90
44117;DHT22;29781;49.480;8.512;2023-01-10T01:12:20;7.20;99.90
44117;DHT22;29781;49.480;8.512;2023-01-10T01:14:45;7.10;99.90
44117;DHT22;29781;49.480;8.512;2023-01-10T01:17:11;7.20;99.90
44117;DHT22;29781;49.480;8.512;2023-01-10T01:19:36;7.20;99.90
44117;DHT22;29781;49.480;8.512;2023-01-10T01:22:02;7.10;99.90
44117;DHT22;29781;49.480;8.512;2023-01-10T01:24:27;7.20;99.90
44117;DHT22;29781;49.480;8.512;2023-01-10T01:26:53;7.10;99.90
44117;DHT22;29781;49.480;8.512;2023-01-10T01:29:18;7.10;99.90
44117;DHT22;29781;49.480;8.512;2023-01-10T01:31:44;7.20;99.90
44117;DHT22;29781;49.480;8.512;2023-01-10T01:34:10;7.10;99.90
44117;DHT22;29781;49.480;8.512;2023-01-10T01:36:35;7.10;99.90
44117;DHT22;29781;49.480;8.512;2023-01-10T01:39:01;7.00;99.90
44117;DHT22;29781;49.480;8.512;2023-01-10T01:41:28;7.00;99.90
44117;DHT22;29781;49.480;8.512;2023-01-10T01:44:15;7.10;99.90
44117;DHT22;29781;49.480;8.512;2023-01-10T01:46:49;7.10;99.90
44117;DHT22;29781;49.480;8.512;2023-01-10T01:49:16;7.10;99.90
44117;DHT22;29781;49.480;8.512;2023-01-10T01:51:43;7.10;99.90
44117;DHT22;29781;49.480;8.512;2023-01-10T01:54:11;7.10;99.90
44117;DHT22;29781;49.480;8.512;2023-01-10T01:56:41;7.00;99.90
44117;DHT22;29781;49.480;8.512;2023-01-10T01:59:11;7.00;99.90
44117;DHT22;29781;49.480;8.512;2023-01-10T02:01:38;7.10;99.90
44117;DHT22;29781;49.480;8.512;2023-01-10T02:04:09;7.20;99.90
44117;DHT22;29781;49.480;8.512;2023-01-10T02:06:36;7.10;99.90
44117;DHT22;29781;49.480;8.512;2023-01-10T02:09:04;7.10;99.90
44117;DHT22;29781;49.480;8.512;2023-01-10T02:11:31;7.10;99.90
44117;DHT22;29781;49.480;8.512;2023-01-10T02:13:57;7.10;99.90
44117;DHT22;29781;49.480;8.512;2023-01-10T02:16:23;7.20;99.90
44117;DHT22;29781;49.480;8.512;2023-01-10T02:18:49;7.20;99.90
44117;DHT22;29781;49.480;8.512;2023-01-10T02:26:55;7.20;99.90
44117;DHT22;29781;49.480;8.512;2023-01-10T02:32:08;7.30;99.90
44117;DHT22;29781;49.480;8.512;2023-01-10T02:37:24;7.20;99.90
44117;DHT22;29781;49.480;8.512;2023-01-10T02:40:03;7.10;99.90
44117;DHT22;29781;49.480;8.512;2023-01-10T02:47:35;7.20;99.90
44117;DHT22;29781;49.480;8.512;2023-01-10T02:50:15;7.20;99.90
44117;DHT22;29781;49.480;8.512;2023-01-10T02:52:45;7.10;99.90
44117;DHT22;29781;49.480;8.512;2023-01-10T02:55:11;7.20;99.90
44117;DHT22;29781;49.480;8.512;2023-01-10T02:57:42;7.10;99.90
44117;DHT22;29781;49.480;8.512;2023-01-10T03:00:22;7.10;99.90
44117;DHT22;29781;49.480;8.512;2023-01-10T03:07:56;7.20;99.90
44117;DHT22;29781;49.480;8.512;2023-01-10T03:10:32;7.00;99.90
44117;DHT22;29781;49.480;8.512;2023-01-10T03:13:09;7.00;99.90
44117;DHT22;29781;49.480;8.512;2023-01-10T03:15:36;7.00;99.90
44117;DHT22;29781;49.480;8.512;2023-01-10T03:18:03;6.90;99.90
44117;DHT22;29781;49.480;8.512;2023-01-10T03:20:30;6.90;99.90
44117;DHT22;29781;49.480;8.512;2023-01-10T03:22:57;7.00;99.90
44117;DHT22;29781;49.480;8.512;2023-01-10T03:25:23;7.00;99.90
44117;DHT22;29781;49.480;8.512;2023-01-10T03:27:53;7.00;99.90
44117;DHT22;29781;49.480;8.512;2023-01-10T03:32:48;7.00;99.90
44117;DHT22;29781;49.480;8.512;2023-01-10T03:35:14;7.00;99.90
44117;DHT22;29781;49.480;8.512;2023-01-10T03:42:35;6.90;99.90
44117;DHT22;29781;49.480;8.512;2023-01-10T03:45:27;6.90;99.90
44117;DHT22;29781;49.480;8.512;2023-01-10T03:47:54;6.90;99.90
44117;DHT22;29781;49.480;8.512;2023-01-10T03:50:21;7.00;99.90
44117;DHT22;29781;49.480;8.512;2023-01-10T03:52:47;7.00;99.90
44117;DHT22;29781;49.480;8.512;2023-01-10T03:55:13;7.10;99.90
44117;DHT22;29781;49.480;8.512;2023-01-10T03:57:42;7.00;99.90
44117;DHT22;29781;49.480;8.512;2023-01-10T04:00:11;6.90;99.90
44117;DHT22;29781;49.480;8.512;2023-01-10T04:02:37;6.90;99.90
44117;DHT22;29781;49.480;8.512;2023-01-10T04:05:03;6.90;99.90
44117;DHT22;29781;49.480;8.512;2023-01-10T04:07:28;6.90;99.90
44117;DHT22;29781;49.480;8.512;2023-01-10T04:09:54;7.00;99.90
44117;DHT22;29781;49.480;8.512;2023-01-10T04:12:20;7.10;99.90
44117;DHT22;29781;49.480;8.512;2023-01-10T04:14:45;7.10;99.90
44117;DHT22;29781;49.480;8.512;2023-01-10T04:17:11;7.20;99.90
44117;DHT22;29781;49.480;8.512;2023-01-10T04:19:37;7.00;99.90
44117;DHT22;29781;49.480;8.512;2023-01-10T04:22:03;7.00;99.90
44117;DHT22;29781;49.480;8.512;2023-01-10T04:24:30;7.00;99.90
44117;DHT22;29781;49.480;8.512;2023-01-10T04:26:55;7.00;99.90
44117;DHT22;29781;49.480;8.512;2023-01-10T04:29:21;6.90;99.90
44117;DHT22;29781;49.480;8.512;2023-01-10T04:31:46;6.80;99.90
44117;DHT22;29781;49.480;8.512;2023-01-10T04:34:12;6.90;99.90
44117;DHT22;29781;49.480;8.512;2023-01-10T04:36:37;6.90;99.90
44117;DHT22;29781;49.480;8.512;2023-01-10T04:39:03;6.90;99.90
44117;DHT22;29781;49.480;8.512;2023-01-10T04:41:29;6.90;99.90
44117;DHT22;29781;49.480;8.512;2023-01-10T04:43:54;7.10;99.90
44117;DHT22;29781;49.480;8.512;2023-01-10T04:46:20;7.00;99.90
44117;DHT22;29781;49.480;8.512;2023-01-10T04:48:45;7.00;99.90
44117;DHT22;29781;49.480;8.512;2023-01-10T04:51:11;7.00;99.90
44117;DHT22;29781;49.480;8.512;2023-01-10T04:53:36;7.10;99.90
44117;DHT22;29781;49.480;8.512;2023-01-10T04:56:03;6.90;99.90
44117;DHT22;29781;49.480;8.512;2023-01-10T04:58:31;6.90;99.90
44117;DHT22;29781;49.480;8.512;2023-01-10T05:00:56;6.80;99.90
44117;DHT22;29781;49.480;8.512;2023-01-10T05:03:21;6.80;99.90
44117;DHT22;29781;49.480;8.512;2023-01-10T05:05:47;6.80;99.90
44117;DHT22;29781;49.480;8.512;2023-01-10T05:08:12;6.90;99.90
44117;DHT22;29781;49.480;8.512;2023-01-10T05:10:38;6.80;99.90
44117;DHT22;29781;49.480;8.512;2023-01-10T05:13:03;6.90;99.90
44117;DHT22;29781;49.480;8.512;2023-01-10T05:15:29;6.80;99.90
44117;DHT22;29781;49.480;8.512;2023-01-10T05:17:58;6.90;99.90
44117;DHT22;29781;49.480;8.512;2023-01-10T05:20:24;6.80;99.90
44117;DHT22;29781;49.480;8.512;2023-01-10T05:22:49;6.60;99.90
44117;DHT22;29781;49.480;8.512;2023-01-10T05:25:15;6.70;99.90
44117;DHT22;29781;49.480;8.512;2023-01-10T05:27:41;6.80;99.90
44117;DHT22;29781;49.480;8.512;2023-01-10T05:30:10;6.80;99.90
44117;DHT22;29781;49.480;8.512;2023-01-10T05:32:36;6.80;99.90
44117;DHT22;29781;49.480;8.512;2023-01-10T05:35:01;6.80;99.90
44117;DHT22;29781;49.480;8.512;2023-01-10T05:37:27;6.70;99.90
44117;DHT22;29781;49.480;8.512;2023-01-10T05:39:52;6.70;99.90
44117;DHT22;29781;49.480;8.512;2023-01-10T05:42:18;6.80;99.90
44117;DHT22;29781;49.480;8.512;2023-01-10T05:44:43;6.90;99.90
44117;DHT22;29781;49.480;8.512;2023-01-10T05:47:09;6.70;99.90
44117;DHT22;29781;49.480;8.512;2023-01-10T05:49:34;6.80;99.90
44117;DHT22;29781;49.480;8.512;2023-01-10T05:52:00;6.80;99.90
44117;DHT22;29781;49.480;8.512;2023-01-10T05:54:25;6.90;99.90
44117;DHT22;29781;49.480;8.512;2023-01-10T05:56:51;6.90;99.90
44117;DHT22;29781;49.480;8.512;2023-01-10T05:59:16;6.90;99.90
44117;DHT22;29781;49.480;8.512;2023-01-10T06:01:42;6.80;99.90
44117;DHT22;29781;49.480;8.512;2023-01-10T06:04:08;6.80;99.90
44117;DHT22;29781;49.480;8.512;2023-01-10T06:06:33;6.80;99.90
44117;DHT22;29781;49.480;8.512;2023-01-10T06:08:59;6.70;99.90
44117;DHT22;29781;49.480;8.512;2023-01-10T06:11:24;6.70;99.90
44117;DHT22;29781;49.480;8.512;2023-01-10T06:13:56;6.70;99.90
44117;DHT22;29781;49.480;8.512;2023-01-10T06:16:22;6.80;99.90
44117;DHT22;29781;49.480;8.512;2023-01-10T06:18:47;6.90;99.90
44117;DHT22;29781;49.480;8.512;2023-01-10T06:21:13;6.70;99.90
44117;DHT22;29781;49.480;8.512;2023-01-10T06:23:38;6.80;99.90
44117;DHT22;29781;49.480;8.512;2023-01-10T06:26:04;6.70;99.90
44117;DHT22;29781;49.480;8.512;2023-01-10T06:28:30;6.80;99.90
44117;DHT22;29781;49.480;8.512;2023-01-10T06:30:55;6.90;99.90
44117;DHT22;29781;49.480;8.512;2023-01-10T06:33:21;6.80;99.90
44117;DHT22;29781;49.480;8.512;2023-01-10T06:35:46;6.90;99.90
44117;DHT22;29781;49.480;8.512;2023-01-10T06:38:12;6.90;99.90
44117;DHT22;29781;49.480;8.512;2023-01-10T06:40:38;6.90;99.90
44117;DHT22;29781;49.480;8.512;2023-01-10T06:43:04;6.90;99.90
44117;DHT22;29781;49.480;8.512;2023-01-10T06:45:29;6.90;99.90
44117;DHT22;29781;49.480;8.512;2023-01-10T06:47:55;7.00;99.90
44117;DHT22;29781;49.480;8.512;2023-01-10T06:50:21;7.00;99.90
44117;DHT22;29781;49.480;8.512;2023-01-10T06:52:53;7.10;99.90
44117;DHT22;29781;49.480;8.512;2023-01-10T06:55:19;7.10;99.90
44117;DHT22;29781;49.480;8.512;2023-01-10T06:57:44;7.00;99.90
44117;DHT22;29781;49.480;8.512;2023-01-10T07:00:10;7.00;99.90
44117;DHT22;29781;49.480;8.512;2023-01-10T07:02:36;7.10;99.90
44117;DHT22;29781;49.480;8.512;2023-01-10T07:05:01;7.20;99.90
44117;DHT22;29781;49.480;8.512;2023-01-10T07:07:27;7.20;99.90
44117;DHT22;29781;49.480;8.512;2023-01-10T07:09:52;7.10;99.90
44117;DHT22;29781;49.480;8.512;2023-01-10T07:12:18;7.00;99.90
44117;DHT22;29781;49.480;8.512;2023-01-10T07:14:43;7.00;99.90
44117;DHT22;29781;49.480;8.512;2023-01-10T07:17:09;7.00;99.90
44117;DHT22;29781;49.480;8.512;2023-01-10T07:19:34;7.10;99.90
44117;DHT22;29781;49.480;8.512;2023-01-10T07:22:00;7.10;99.90
44117;DHT22;29781;49.480;8.512;2023-01-10T07:24:25;6.90;99.90
44117;DHT22;29781;49.480;8.512;2023-01-10T07:26:53;6.70;99.90
44117;DHT22;29781;49.480;8.512;2023-01-10T07:29:18;6.80;99.90
44117;DHT22;29781;49.480;8.512;2023-01-10T07:31:44;6.90;99.90
44117;DHT22;29781;49.480;8.512;2023-01-10T07:34:09;7.00;99.90
44117;DHT22;29781;49.480;8.512;2023-01-10T07:36:35;6.90;99.90
44117;DHT22;29781;49.480;8.512;2023-01-10T07:39:01;6.70;99.90
44117;DHT22;29781;49.480;8.512;2023-01-10T07:41:27;6.60;99.90
44117;DHT22;29781;49.480;8.512;2023-01-10T07:43:52;6.80;99.90
44117;DHT22;29781;49.480;8.512;2023-01-10T07:46:18;6.80;99.90
44117;DHT22;29781;49.480;8.512;2023-01-10T07:48:43;6.90;99.90
44117;DHT22;29781;49.480;8.512;2023-01-10T07:51:11;6.80;99.90
44117;DHT22;29781;49.480;8.512;2023-01-10T07:53:37;6.90;99.90
44117;DHT22;29781;49.480;8.512;2023-01-10T07:56:02;6.90;99.90
44117;DHT22;29781;49.480;8.512;2023-01-10T07:58:28;7.00;99.90
44117;DHT22;29781;49.480;8.512;2023-01-10T08:01:00;7.00;99.90
44117;DHT22;29781;49.480;8.512;2023-01-10T08:03:26;7.00;99.90
44117;DHT22;29781;49.480;8.512;2023-01-10T08:06:02;6.80;99.90
44117;DHT22;29781;49.480;8.512;2023-01-10T08:08:28;6.90;99.90
44117;DHT22;29781;49.480;8.512;2023-01-10T08:10:54;6.90;99.90
44117;DHT22;29781;49.480;8.512;2023-01-10T08:13:19;6.90;99.90
44117;DHT22;29781;49.480;8.512;2023-01-10T08:15:45;7.00;99.90
44117;DHT22;29781;49.480;8.512;2023-01-10T08:18:11;7.00;99.90
44117;DHT22;29781;49.480;8.512;2023-01-10T08:20:37;6.90;99.90
44117;DHT22;29781;49.480;8.512;2023-01-10T08:23:02;6.90;99.90
44117;DHT22;29781;49.480;8.512;2023-01-10T08:25:28;7.00;99.90
44117;DHT22;29781;49.480;8.512;2023-01-10T08:27:54;6.80;99.90
44117;DHT22;29781;49.480;8.512;2023-01-10T08:30:19;6.80;99.90
44117;DHT22;29781;49.480;8.512;2023-01-10T08:32:45;6.80;99.90
44117;DHT22;29781;49.480;8.512;2023-01-10T08:35:11;6.80;99.90
44117;DHT22;29781;49.480;8.512;2023-01-10T08:37:36;6.80;99.90
44117;DHT22;29781;49.480;8.512;2023-01-10T08:40:02;6.80;99.90
44117;DHT22;29781;49.480;8.512;2023-01-10T08:42:27;6.90;99.90
44117;DHT22;29781;49.480;8.512;2023-01-10T08:44:53;7.00;99.90
44117;DHT22;29781;49.480;8.512;2023-01-10T08:47:19;7.10;99.90
44117;DHT22;29781;49.480;8.512;2023-01-10T08:49:44;7.10;99.90
44117;DHT22;29781;49.480;8.512;2023-01-10T08:52:11;7.10;99.90
44117;DHT22;29781;49.480;8.512;2023-01-10T08:54:37;7.20;99.90
44117;DHT22;29781;49.480;8.512;2023-01-10T08:57:02;7.20;99.90
44117;DHT22;29781;49.480;8.512;2023-01-10T08:59:28;7.20;99.90
44117;DHT22;29781;49.480;8.512;2023-01-10T09:01:53;7.30;99.90
44117;DHT22;29781;49.480;8.512;2023-01-10T09:04:23;7.20;99.90
44117;DHT22;29781;49.480;8.512;2023-01-10T09:06:48;7.30;99.90
44117;DHT22;29781;49.480;8.512;2023-01-10T09:09:13;7.30;99.90
44117;DHT22;29781;49.480;8.512;2023-01-10T09:11:39;7.30;99.90
44117;DHT22;29781;49.480;8.512;2023-01-10T09:14:04;7.20;99.90
44117;DHT22;29781;49.480;8.512;2023-01-10T09:16:31;7.30;99.90
44117;DHT22;29781;49.480;8.512;2023-01-10T09:18:57;7.30;99.90
44117;DHT22;29781;49.480;8.512;2023-01-10T09:21:22;7.40;99.90
44117;DHT22;29781;49.480;8.512;2023-01-10T09:23:48;7.50;99.90
44117;DHT22;29781;49.480;8.512;2023-01-10T09:26:13;7.40;99.90
44117;DHT22;29781;49.480;8.512;2023-01-10T09:28:39;7.40;99.90
44117;DHT22;29781;49.480;8.512;2023-01-10T09:31:05;7.40;99.90
44117;DHT22;29781;49.480;8.512;2023-01-10T09:33:33;7.50;99.90
44117;DHT22;29781;49.480;8.512;2023-01-10T09:35:59;7.40;99.90
44117;DHT22;29781;49.480;8.512;2023-01-10T09:38:24;7.40;99.90
44117;DHT22;29781;49.480;8.512;2023-01-10T09:43:21;7.40;99.90
44117;DHT22;29781;49.480;8.512;2023-01-10T09:48:19;7.50;99.90
44117;DHT22;29781;49.480;8.512;2023-01-10T09:53:23;7.40;99.90
44117;DHT22;29781;49.480;8.512;2023-01-10T09:55:53;7.40;99.90
44117;DHT22;29781;49.480;8.512;2023-01-10T09:58:19;7.40;99.90
44117;DHT22;29781;49.480;8.512;2023-01-10T10:00:50;7.50;99.90
44117;DHT22;29781;49.480;8.512;2023-01-10T10:03:20;7.50;99.90
44117;DHT22;29781;49.480;8.512;2023-01-10T10:05:48;7.60;99.90
44117;DHT22;29781;49.480;8.512;2023-01-10T10:08:15;7.50;99.90
44117;DHT22;29781;49.480;8.512;2023-01-10T10:10:45;7.50;99.90
44117;DHT22;29781;49.480;8.512;2023-01-10T10:13:33;7.40;99.90
44117;DHT22;29781;49.480;8.512;2023-01-10T10:18:44;7.40;99.90
44117;DHT22;29781;49.480;8.512;2023-01-10T10:21:15;7.50;99.90
44117;DHT22;29781;49.480;8.512;2023-01-10T10:26:13;7.60;99.90
44117;DHT22;29781;49.480;8.512;2023-01-10T10:31:26;7.70;99.90
44117;DHT22;29781;49.480;8.512;2023-01-10T10:33:56;7.70;99.90
44117;DHT22;29781;49.480;8.512;2023-01-10T10:36:26;7.70;99.90
44117;DHT22;29781;49.480;8.512;2023-01-10T10:38:53;7.60;99.90
44117;DHT22;29781;49.480;8.512;2023-01-10T10:41:33;7.60;99.90
44117;DHT22;29781;49.480;8.512;2023-01-10T10:44:00;7.70;99.90
44117;DHT22;29781;49.480;8.512;2023-01-10T10:46:29;7.70;99.90
44117;DHT22;29781;49.480;8.512;2023-01-10T10:48:56;7.60;99.90
44117;DHT22;29781;49.480;8.512;2023-01-10T10:51:24;7.70;99.90
44117;DHT22;29781;49.480;8.512;2023-01-10T10:53:52;7.60;99.90
44117;DHT22;29781;49.480;8.512;2023-01-10T10:56:19;7.80;99.90
44117;DHT22;29781;49.480;8.512;2023-01-10T10:58:47;7.90;99.90
44117;DHT22;29781;49.480;8.512;2023-01-10T11:01:14;7.90;99.90
44117;DHT22;29781;49.480;8.512;2023-01-10T11:03:45;7.80;99.90
44117;DHT22;29781;49.480;8.512;2023-01-10T11:06:11;7.90;99.90
44117;DHT22;29781;49.480;8.512;2023-01-10T11:08:38;7.90;99.90
44117;DHT22;29781;49.480;8.512;2023-01-10T11:14:02;8.00;99.90
44117;DHT22;29781;49.480;8.512;2023-01-10T11:16:29;8.10;99.90
44117;DHT22;29781;49.480;8.512;2023-01-10T11:19:14;8.00;99.90
44117;DHT22;29781;49.480;8.512;2023-01-10T11:21:40;8.20;99.90
44117;DHT22;29781;49.480;8.512;2023-01-10T11:24:22;8.20;99.90
44117;DHT22;29781;49.480;8.512;2023-01-10T11:26:48;8.00;99.90
44117;DHT22;29781;49.480;8.512;2023-01-10T11:29:18;8.00;99.90
44117;DHT22;29781;49.480;8.512;2023-01-10T11:31:44;8.00;99.90
44117;DHT22;29781;49.480;8.512;2023-01-10T11:34:32;8.10;99.90
44117;DHT22;29781;49.480;8.512;2023-01-10T11:37:00;8.40;99.90
44117;DHT22;29781;49.480;8.512;2023-01-10T11:39:26;8.50;99.90
44117;DHT22;29781;49.480;8.512;2023-01-10T11:41:52;8.50;99.90
44117;DHT22;29781;49.480;8.512;2023-01-10T11:44:26;8.50;99.90
44117;DHT22;29781;49.480;8.512;2023-01-10T11:47:00;8.40;99.90
44117;DHT22;29781;49.480;8.512;2023-01-10T11:49:35;8.20;99.90
44117;DHT22;29781;49.480;8.512;2023-01-10T11:52:03;8.50;99.90
44117;DHT22;29781;49.480;8.512;2023-01-10T11:54:30;8.80;99.90
44117;DHT22;29781;49.480;8.512;2023-01-10T11:56:57;9.00;99.90
44117;DHT22;29781;49.480;8.512;2023-01-10T11:59:23;8.80;99.90
44117;DHT22;29781;49.480;8.512;2023-01-10T12:04:25;8.60;99.90
44117;DHT22;29781;49.480;8.512;2023-01-10T12:06:51;8.60;99.90
44117;DHT22;29781;49.480;8.512;2023-01-10T12:09:31;8.60;99.90
44117;DHT22;29781;49.480;8.512;2023-01-10T12:12:01;8.40;99.90
44117;DHT22;29781;49.480;8.512;2023-01-10T12:14:27;8.50;99.90
44117;DHT22;29781;49.480;8.512;2023-01-10T12:16:59;8.50;99.90
44117;DHT22;29781;49.480;8.512;2023-01-10T12:19:25;8.30;99.90
44117;DHT22;29781;49.480;8.512;2023-01-10T12:21:51;8.30;99.90
44117;DHT22;29781;49.480;8.512;2023-01-10T12:26:45;8.20;99.90
44117;DHT22;29781;49.480;8.512;2023-01-10T12:29:14;8.10;99.90
44117;DHT22;29781;49.480;8.512;2023-01-10T12:31:40;8.10;99.90
44117;DHT22;29781;49.480;8.512;2023-01-10T12:34:09;8.30;99.90
44117;DHT22;29781;49.480;8.512;2023-01-10T12:39:12;8.10;99.90
44117;DHT22;29781;49.480;8.512;2023-01-10T12:44:27;8.20;99.90
44117;DHT22;29781;49.480;8.512;2023-01-10T12:46:59;8.30;99.90
44117;DHT22;29781;49.480;8.512;2023-01-10T12:52:13;8.20;99.90
44117;DHT22;29781;49.480;8.512;2023-01-10T12:54:39;8.20;99.90
44117;DHT22;29781;49.480;8.512;2023-01-10T12:57:08;8.10;99.90
44117;DHT22;29781;49.480;8.512;2023-01-10T12:59:40;8.10;99.90
44117;DHT22;29781;49.480;8.512;2023-01-10T13:02:14;8.20;99.90
44117;DHT22;29781;49.480;8.512;2023-01-10T13:04:41;8.10;99.90
44117;DHT22;29781;49.480;8.512;2023-01-10T13:07:09;8.30;99.90
44117;DHT22;29781;49.480;8.512;2023-01-10T13:09:35;8.40;99.90
44117;DHT22;29781;49.480;8.512;2023-01-10T13:12:10;8.40;99.90
44117;DHT22;29781;49.480;8.512;2023-01-10T13:15:21;8.40;99.90
44117;DHT22;29781;49.480;8.512;2023-01-10T13:22:37;8.40;99.90
44117;DHT22;29781;49.480;8.512;2023-01-10T13:25:02;8.30;99.90
44117;DHT22;29781;49.480;8.512;2023-01-10T13:27:32;8.20;99.90
44117;DHT22;29781;49.480;8.512;2023-01-10T13:29:59;8.20;99.90
44117;DHT22;29781;49.480;8.512;2023-01-10T13:32:28;8.20;99.90
44117;DHT22;29781;49.480;8.512;2023-01-10T13:34:55;8.30;99.90
44117;DHT22;29781;49.480;8.512;2023-01-10T13:37:34;8.40;99.90
44117;DHT22;29781;49.480;8.512;2023-01-10T13:40:01;8.50;99.90
44117;DHT22;29781;49.480;8.512;2023-01-10T13:42:32;8.50;99.90
44117;DHT22;29781;49.480;8.512;2023-01-10T13:45:17;8.50;99.90
44117;DHT22;29781;49.480;8.512;2023-01-10T13:52:47;8.30;99.90
44117;DHT22;29781;49.480;8.512;2023-01-10T13:55:31;8.30;99.90
44117;DHT22;29781;49.480;8.512;2023-01-10T13:58:43;8.30;99.90
44117;DHT22;29781;49.480;8.512;2023-01-10T14:00:52;8.40;99.90
44117;DHT22;29781;49.480;8.512;2023-01-10T14:06:03;8.40;99.90
44117;DHT22;29781;49.480;8.512;2023-01-10T14:08:31;8.40;99.90
44117;DHT22;29781;49.480;8.512;2023-01-10T14:11:05;8.40;99.90
44117;DHT22;29781;49.480;8.512;2023-01-10T14:13:31;8.40;99.90
44117;DHT22;29781;49.480;8.512;2023-01-10T14:15:56;8.30;99.90
44117;DHT22;29781;49.480;8.512;2023-01-10T14:18:28;8.10;99.90
44117;DHT22;29781;49.480;8.512;2023-01-10T14:21:00;8.10;99.90
44117;DHT22;29781;49.480;8.512;2023-01-10T14:23:36;8.10;99.90
44117;DHT22;29781;49.480;8.512;2023-01-10T14:26:02;8.20;99.90
44117;DHT22;29781;49.480;8.512;2023-01-10T14:28:29;8.20;99.90
44117;DHT22;29781;49.480;8.512;2023-01-10T14:30:58;8.20;99.90
44117;DHT22;29781;49.480;8.512;2023-01-10T14:33:25;8.30;99.90
44117;DHT22;29781;49.480;8.512;2023-01-10T14:35:52;8.20;99.90
44117;DHT22;29781;49.480;8.512;2023-01-10T14:38:22;8.10;99.90
44117;DHT22;29781;49.480;8.512;2023-01-10T14:40:48;8.20;99.90
44117;DHT22;29781;49.480;8.512;2023-01-10T14:43:16;8.10;99.90
44117;DHT22;29781;49.480;8.512;2023-01-10T14:48:18;8.40;99.90
44117;DHT22;29781;49.480;8.512;2023-01-10T14:50:46;8.30;99.90
44117;DHT22;29781;49.480;8.512;2023-01-10T14:53:23;8.20;99.90
44117;DHT22;29781;49.480;8.512;2023-01-10T14:55:49;8.00;99.90
44117;DHT22;29781;49.480;8.512;2023-01-10T14:58:16;8.00;99.90
44117;DHT22;29781;49.480;8.512;2023-01-10T15:00:42;8.00;99.90
44117;DHT22;29781;49.480;8.512;2023-01-10T15:03:13;8.10;99.90
44117;DHT22;29781;49.480;8.512;2023-01-10T15:05:46;8.10;99.90
44117;DHT22;29781;49.480;8.512;2023-01-10T15:08:22;8.00;99.90
44117;DHT22;29781;49.480;8.512;2023-01-10T15:10:48;8.10;99.90
44117;DHT22;29781;49.480;8.512;2023-01-10T15:13:16;8.10;99.90
44117;DHT22;29781;49.480;8.512;2023-01-10T15:15:44;8.00;99.90
44117;DHT22;29781;49.480;8.512;2023-01-10T15:18:21;8.00;99.90
44117;DHT22;29781;49.480;8.512;2023-01-10T15:20:49;8.00;99.90
44117;DHT22;29781;49.480;8.512;2023-01-10T15:23:14;7.90;99.90
44117;DHT22;29781;49.480;8.512;2023-01-10T15:25:40;8.00;99.90
44117;DHT22;29781;49.480;8.512;2023-01-10T15:28:13;8.00;99.90
44117;DHT22;29781;49.480;8.512;2023-01-10T15:30:39;7.90;99.90
44117;DHT22;29781;49.480;8.512;2023-01-10T15:33:08;7.90;99.90
44117;DHT22;29781;49.480;8.512;2023-01-10T15:35:34;7.90;99.90
44117;DHT22;29781;49.480;8.512;2023-01-10T15:38:12;7.90;99.90
44117;DHT22;29781;49.480;8.512;2023-01-10T15:40:39;7.90;99.90
44117;DHT22;29781;49.480;8.512;2023-01-10T15:43:09;7.90;99.90
44117;DHT22;29781;49.480;8.512;2023-01-10T15:45:35;7.90;99.90
44117;DHT22;29781;49.480;8.512;2023-01-10T15:48:03;8.00;99.90
44117;DHT22;29781;49.480;8.512;2023-01-10T15:50:30;7.90;99.90
44117;DHT22;29781;49.480;8.512;2023-01-10T15:52:58;7.90;99.90
44117;DHT22;29781;49.480;8.512;2023-01-10T15:55:38;7.90;99.90
44117;DHT22;29781;49.480;8.512;2023-01-10T15:58:04;7.90;99.90
44117;DHT22;29781;49.480;8.512;2023-01-10T16:00:30;8.00;99.90
44117;DHT22;29781;49.480;8.512;2023-01-10T16:02:55;7.90;99.90
44117;DHT22;29781;49.480;8.512;2023-01-10T16:05:21;7.90;99.90
44117;DHT22;29781;49.480;8.512;2023-01-10T16:07:47;7.90;99.90
44117;DHT22;29781;49.480;8.512;2023-01-10T16:12:41;7.90;99.90
44117;DHT22;29781;49.480;8.512;2023-01-10T16:15:27;7.90;99.90
44117;DHT22;29781;49.480;8.512;2023-01-10T16:17:53;7.80;99.90
44117;DHT22;29781;49.480;8.512;2023-01-10T16:20:19;7.90;99.90
44117;DHT22;29781;49.480;8.512;2023-01-10T16:22:46;8.00;99.90
44117;DHT22;29781;49.480;8.512;2023-01-10T16:25:15;8.00;99.90
44117;DHT22;29781;49.480;8.512;2023-01-10T16:27:42;8.00;99.90
44117;DHT22;29781;49.480;8.512;2023-01-10T16:30:41;8.00;99.90
44117;DHT22;29781;49.480;8.512;2023-01-10T16:33:08;7.90;99.90
44117;DHT22;29781;49.480;8.512;2023-01-10T16:35:34;7.90;99.90
44117;DHT22;29781;49.480;8.512;2023-01-10T16:38:00;7.80;99.90
44117;DHT22;29781;49.480;8.512;2023-01-10T16:40:27;7.80;99.90
44117;DHT22;29781;49.480;8.512;2023-01-10T16:42:54;7.70;99.90
44117;DHT22;29781;49.480;8.512;2023-01-10T16:45:38;7.70;99.90
44117;DHT22;29781;49.480;8.512;2023-01-10T16:48:04;7.70;99.90
44117;DHT22;29781;49.480;8.512;2023-01-10T16:50:29;7.80;99.90
44117;DHT22;29781;49.480;8.512;2023-01-10T16:52:55;7.70;99.90
44117;DHT22;29781;49.480;8.512;2023-01-10T16:55:23;7.70;99.90
44117;DHT22;29781;49.480;8.512;2023-01-10T16:57:49;7.70;99.90
44117;DHT22;29781;49.480;8.512;2023-01-10T17:00:16;7.70;99.90
44117;DHT22;29781;49.480;8.512;2023-01-10T17:02:41;7.60;99.90
44117;DHT22;29781;49.480;8.512;2023-01-10T17:05:08;7.60;99.90
44117;DHT22;29781;49.480;8.512;2023-01-10T17:07:34;7.60;99.90